createdAt,value
2023-05-08T00:03:45.970Z,0.09
2023-05-08T00:12:09.168Z,0.07
2023-05-08T00:20:34.487Z,0.01
2023-05-08T00:28:57.478Z,0.00
2023-05-08T00:37:21.213Z,0.01
2023-05-08T00:45:44.365Z,-0.13
2023-05-08T00:54:07.533Z,-0.21
2023-05-08T01:02:32.014Z,-0.18
2023-05-08T01:11:09.192Z,-0.21
2023-05-08T01:19:35.625Z,-0.26
2023-05-08T01:28:30.123Z,-0.30
2023-05-08T01:37:16.575Z,-0.40
2023-05-08T01:45:45.071Z,-0.47
2023-05-08T01:54:12.662Z,-0.42
2023-05-08T02:02:36.473Z,-0.41
2023-05-08T02:11:02.192Z,-0.40
2023-05-08T02:19:28.708Z,-0.37
2023-05-08T02:27:54.710Z,-0.41
2023-05-08T02:36:19.516Z,-0.42
2023-05-08T02:44:42.986Z,-0.41
2023-05-08T02:53:12.617Z,-0.46
2023-05-08T03:01:46.229Z,-0.54
2023-05-08T03:10:17.002Z,-0.59
2023-05-08T03:18:47.104Z,-0.66
2023-05-08T03:27:11.288Z,-0.67
2023-05-08T03:35:39.269Z,-0.56
2023-05-08T03:44:05.728Z,0.12
2023-05-08T03:52:30.393Z,1.91
2023-05-08T04:01:12.146Z,3.58
2023-05-08T04:09:55.294Z,4.81
2023-05-08T04:18:25.645Z,5.47
2023-05-08T04:26:49.724Z,5.46
2023-05-08T04:35:14.069Z,5.55
2023-05-08T04:43:38.586Z,5.70
2023-05-08T04:52:02.578Z,5.84
2023-05-08T05:00:25.637Z,5.96
2023-05-08T05:08:48.886Z,6.15
2023-05-08T05:17:12.251Z,6.25
2023-05-08T05:25:35.975Z,6.57
2023-05-08T05:33:59.629Z,6.84
2023-05-08T05:42:23.361Z,6.91
2023-05-08T05:50:46.634Z,7.27
2023-05-08T05:59:10.307Z,7.71
2023-05-08T06:07:50.627Z,8.32
2023-05-08T06:16:16.178Z,8.78
2023-05-08T06:24:53.691Z,9.08
2023-05-08T06:33:16.781Z,9.42
2023-05-08T06:41:40.906Z,9.59
2023-05-08T06:50:04.627Z,9.81
2023-05-08T06:58:27.678Z,10.09
2023-05-08T07:06:50.601Z,10.24
2023-05-08T07:15:25.660Z,10.37
2023-05-08T07:24:01.549Z,10.68
2023-05-08T07:32:25.190Z,11.06
2023-05-08T07:40:49.105Z,11.41
2023-05-08T07:49:13.151Z,11.86
2023-05-08T07:57:42.641Z,12.01
2023-05-08T08:06:08.920Z,12.06
2023-05-08T08:14:32.211Z,12.04
2023-05-08T08:22:55.227Z,11.77
2023-05-08T08:31:20.049Z,11.72
2023-05-08T08:39:43.580Z,11.83
2023-05-08T08:48:11.651Z,11.83
2023-05-08T08:56:38.188Z,11.92
2023-05-08T09:05:03.249Z,12.31
2023-05-08T09:13:26.425Z,12.60
2023-05-08T09:21:49.623Z,12.92
2023-05-08T09:30:14.739Z,13.17
2023-05-08T09:38:40.340Z,13.37
2023-05-08T09:47:13.877Z,13.71
2023-05-08T09:55:48.914Z,13.93
2023-05-08T10:04:11.789Z,13.65
2023-05-08T10:12:35.033Z,13.51
2023-05-08T10:21:01.190Z,13.65
2023-05-08T10:29:33.540Z,14.06
2023-05-08T10:37:57.350Z,14.64
2023-05-08T10:46:38.682Z,14.30
2023-05-08T10:55:33.498Z,14.13
2023-05-08T11:03:56.901Z,13.96
2023-05-08T11:12:28.184Z,13.51
2023-05-08T11:21:00.287Z,13.59
2023-05-08T11:29:23.693Z,13.65
2023-05-08T11:38:19.817Z,14.10
2023-05-08T11:46:44.070Z,14.32
2023-05-08T11:55:08.795Z,14.46
2023-05-08T12:03:32.497Z,14.43
2023-05-08T12:11:59.381Z,14.02
2023-05-08T12:20:22.354Z,13.57
2023-05-08T12:28:46.858Z,13.80
2023-05-08T12:37:09.958Z,14.18
2023-05-08T12:45:35.901Z,14.14
2023-05-08T12:53:58.806Z,14.26
2023-05-08T13:02:24.240Z,14.32
2023-05-08T13:10:51.400Z,14.56
2023-05-08T13:19:16.143Z,14.66
2023-05-08T13:27:39.022Z,14.59
2023-05-08T13:36:04.518Z,14.33
2023-05-08T13:44:32.559Z,14.56
2023-05-08T13:52:56.373Z,14.33
2023-05-08T14:01:26.527Z,14.02
2023-05-08T14:09:50.124Z,14.15
2023-05-08T14:18:13.746Z,14.26
2023-05-08T14:26:37.009Z,14.45
2023-05-08T14:35:00.222Z,14.67
2023-05-08T14:43:24.144Z,14.54
2023-05-08T14:51:47.106Z,14.25
2023-05-08T15:00:11.278Z,14.28
2023-05-08T15:08:34.170Z,14.18
2023-05-08T15:16:57.076Z,13.96
2023-05-08T15:25:20.251Z,13.76
2023-05-08T15:33:45.355Z,13.74
2023-05-08T15:42:08.491Z,13.74
2023-05-08T15:50:31.466Z,13.63
2023-05-08T15:58:54.462Z,13.52
2023-05-08T16:07:17.918Z,13.43
2023-05-08T16:15:41.157Z,13.33
2023-05-08T16:24:04.757Z,13.28
2023-05-08T16:32:27.811Z,13.22
2023-05-08T16:40:50.752Z,13.05
2023-05-08T16:49:14.096Z,12.84
2023-05-08T16:57:36.936Z,12.65
2023-05-08T17:06:00.026Z,12.45
2023-05-08T17:14:22.875Z,12.29
2023-05-08T17:22:45.825Z,12.13
2023-05-08T17:31:09.669Z,11.95
2023-05-08T17:39:33.080Z,11.71
2023-05-08T17:47:55.990Z,11.45
2023-05-08T17:56:20.713Z,11.15
2023-05-08T18:04:43.654Z,10.82
2023-05-08T18:13:07.227Z,10.38
2023-05-08T18:21:31.614Z,9.95
2023-05-08T18:29:54.803Z,9.52
2023-05-08T18:38:17.752Z,9.09
2023-05-08T18:46:41.136Z,8.68
2023-05-08T18:55:04.321Z,8.22
2023-05-08T19:03:27.691Z,7.78
2023-05-08T19:11:50.826Z,7.39
2023-05-08T19:20:15.800Z,7.00
2023-05-08T19:28:38.933Z,6.55
2023-05-08T19:37:01.799Z,6.19
2023-05-08T19:45:24.655Z,5.87
2023-05-08T19:53:47.554Z,5.58
2023-05-08T20:02:10.444Z,5.36
2023-05-08T20:10:33.443Z,5.21
2023-05-08T20:18:56.539Z,5.05
2023-05-08T20:27:19.486Z,4.84
2023-05-08T20:35:42.412Z,4.64
2023-05-08T20:44:05.625Z,4.47
2023-05-08T20:52:28.470Z,4.38
2023-05-08T21:00:51.332Z,4.29
2023-05-08T21:09:14.191Z,4.09
2023-05-08T21:17:37.138Z,3.92
2023-05-08T21:26:00.193Z,3.83
2023-05-08T21:34:23.112Z,3.71
2023-05-08T21:42:46.090Z,3.51
2023-05-08T21:51:08.926Z,3.36
2023-05-08T21:59:31.876Z,3.32
2023-05-08T22:07:54.869Z,3.21
2023-05-08T22:16:18.257Z,3.03
2023-05-08T22:24:41.251Z,2.88
2023-05-08T22:33:04.287Z,2.80
2023-05-08T22:41:29.893Z,2.66
2023-05-08T22:49:52.923Z,2.48
2023-05-08T22:58:16.165Z,2.34
2023-05-08T23:06:39.033Z,2.28
2023-05-08T23:15:02.043Z,2.18
2023-05-08T23:23:24.856Z,2.08
2023-05-08T23:31:47.690Z,1.98
2023-05-08T23:40:10.974Z,1.92
2023-05-08T23:48:33.909Z,1.88
2023-05-08T23:56:56.868Z,1.77
